Terminal Aerodrome Forecast
Issued by NWS Memphis, TN

Home | Current Version | Previous Version | Text Only | Print | Product List | Glossary On
Versions: 1 2 3 4 5 6 7 8 9 10 11 12 13 14
084
FTUS44 KMEG 261120
TAFMKL
TAF
KMKL 261120Z 2612/2712 00000KT 6SM BR SKC
      TEMPO 2612/2613 3SM BR
     FM261400 VRB03KT P6SM SKC
     FM261600 VRB05KT P6SM SCT045 SCT250
     FM270000 00000KT P6SM FEW250
     FM270600 00000KT 6SM BR SKC
      TEMPO 2708/2712 3SM BR=

USA.gov is the U.S. government's official web portal to all federal, state and local government web resources and services.